createdAt,value
2022-08-08T00:00:52.255Z,1.50
2022-08-08T00:05:43.844Z,1.58
2022-08-08T00:12:07.442Z,1.50
2022-08-08T00:18:11.523Z,1.40
2022-08-08T00:24:18.225Z,1.42
2022-08-08T00:30:19.740Z,1.40
2022-08-08T00:36:28.373Z,1.60
2022-08-08T00:42:46.406Z,1.60
2022-08-08T00:49:00.944Z,1.70
2022-08-08T00:55:08.780Z,1.63
2022-08-08T01:01:38.497Z,1.50
2022-08-08T01:08:09.390Z,1.67
2022-08-08T01:14:53.297Z,1.70
2022-08-08T01:21:15.783Z,1.67
2022-08-08T01:27:59.406Z,1.60
2022-08-08T01:34:21.030Z,1.60
2022-08-08T01:40:57.662Z,1.60
2022-08-08T01:48:16.780Z,1.80
2022-08-08T01:55:14.952Z,1.90
2022-08-08T02:00:27.957Z,1.90
2022-08-08T02:06:48.558Z,1.93
2022-08-08T02:13:54.244Z,1.83
2022-08-08T02:20:07.153Z,1.80
2022-08-08T02:26:34.236Z,2.40
2022-08-08T02:32:53.190Z,2.20
2022-08-08T02:39:00.997Z,2.07
2022-08-08T02:45:18.496Z,1.85
2022-08-08T02:51:55.135Z,2.10
2022-08-08T02:58:26.385Z,2.10
2022-08-08T03:05:05.047Z,2.40
2022-08-08T03:11:48.027Z,2.40
2022-08-08T03:18:15.432Z,2.00
2022-08-08T03:24:32.499Z,2.20
2022-08-08T03:30:35.950Z,2.20
2022-08-08T03:36:42.020Z,4.18
2022-08-08T03:42:47.579Z,3.90
2022-08-08T03:49:56.324Z,2.80
2022-08-08T03:55:57.208Z,2.03
2022-08-08T04:02:13.117Z,2.58
2022-08-08T04:08:08.041Z,2.30
2022-08-08T04:14:33.532Z,2.30
2022-08-08T04:20:31.487Z,2.00
2022-08-08T04:26:35.531Z,2.50
2022-08-08T04:32:54.869Z,2.40
2022-08-08T04:40:03.958Z,2.05
2022-08-08T04:45:25.835Z,2.30
2022-08-08T04:51:57.151Z,2.50
2022-08-08T04:57:50.886Z,2.50
2022-08-08T05:04:08.380Z,2.60
2022-08-08T05:10:17.091Z,2.50
2022-08-08T05:16:51.733Z,2.43
2022-08-08T05:22:40.707Z,2.63
2022-08-08T05:28:55.797Z,2.80
2022-08-08T05:35:01.573Z,4.00
2022-08-08T05:41:07.123Z,2.72
2022-08-08T05:47:14.108Z,2.60
2022-08-08T05:53:54.244Z,2.80
2022-08-08T06:00:00.213Z,3.20
2022-08-08T06:06:18.154Z,2.70
2022-08-08T06:12:29.597Z,2.50
2022-08-08T06:18:34.891Z,2.90
2022-08-08T06:24:38.411Z,4.03
2022-08-08T06:30:43.769Z,2.63
2022-08-08T06:36:53.873Z,2.70
2022-08-08T06:42:59.677Z,3.05
2022-08-08T06:49:06.316Z,2.80
2022-08-08T06:55:13.112Z,2.70
2022-08-08T07:02:17.617Z,2.63
2022-08-08T07:08:08.786Z,3.15
2022-08-08T07:14:16.038Z,3.00
2022-08-08T07:20:28.269Z,3.00
2022-08-08T07:26:35.661Z,2.90
2022-08-08T07:32:40.985Z,2.87
2022-08-08T07:38:53.260Z,2.70
2022-08-08T07:44:55.364Z,2.90
2022-08-08T07:51:00.615Z,2.50
2022-08-08T07:57:17.437Z,2.65
2022-08-08T08:03:41.279Z,2.50
2022-08-08T08:09:47.526Z,2.60
2022-08-08T08:16:00.302Z,2.20
2022-08-08T08:22:07.823Z,2.43
2022-08-08T08:28:21.573Z,2.50
2022-08-08T08:34:32.431Z,2.37
2022-08-08T08:40:35.620Z,2.60
2022-08-08T08:46:39.633Z,1.90
2022-08-08T08:52:59.386Z,2.00
2022-08-08T08:59:02.448Z,2.42
2022-08-08T09:05:13.859Z,1.90
2022-08-08T09:11:33.476Z,2.10
2022-08-08T09:17:41.885Z,1.85
2022-08-08T09:23:55.880Z,1.90
2022-08-08T09:30:06.096Z,2.30
2022-08-08T09:36:19.341Z,2.23
2022-08-08T09:42:32.097Z,2.38
2022-08-08T09:48:38.832Z,1.90
2022-08-08T09:54:42.374Z,2.20
2022-08-08T10:00:53.212Z,2.20
2022-08-08T10:07:00.068Z,2.50
2022-08-08T10:13:14.340Z,2.13
2022-08-08T10:19:16.352Z,2.20
2022-08-08T10:25:20.823Z,1.90
2022-08-08T10:31:47.841Z,2.35
2022-08-08T10:37:53.730Z,2.40
2022-08-08T10:43:57.131Z,2.90
2022-08-08T10:50:03.005Z,2.10
2022-08-08T10:56:06.429Z,2.97
2022-08-08T11:02:09.316Z,2.15
2022-08-08T11:08:38.991Z,1.93
2022-08-08T11:14:50.999Z,2.03
2022-08-08T11:20:53.883Z,2.10
2022-08-08T11:27:10.285Z,2.07
2022-08-08T11:33:52.978Z,2.22
2022-08-08T11:39:57.172Z,2.08
2022-08-08T11:46:13.455Z,1.90
2022-08-08T11:52:26.839Z,2.33
2022-08-08T11:58:34.665Z,2.90
2022-08-08T12:04:39.632Z,2.20
2022-08-08T12:10:51.277Z,2.10
2022-08-08T12:16:55.422Z,1.90
2022-08-08T12:22:57.090Z,2.30
2022-08-08T12:28:58.761Z,2.20
2022-08-08T12:35:13.697Z,2.10
2022-08-08T12:41:35.019Z,2.55
2022-08-08T12:48:04.383Z,3.10
2022-08-08T12:54:24.423Z,3.60
2022-08-08T13:00:33.951Z,4.00
2022-08-08T13:06:51.534Z,4.03
2022-08-08T13:12:53.233Z,3.90
2022-08-08T13:19:05.454Z,4.60
2022-08-08T13:25:17.526Z,4.20
2022-08-08T13:31:21.238Z,4.30
2022-08-08T13:37:52.056Z,4.70
2022-08-08T13:43:46.787Z,4.67
2022-08-08T13:50:36.385Z,4.00
2022-08-08T13:56:41.595Z,4.78
2022-08-08T14:03:05.034Z,4.03
2022-08-08T14:09:29.649Z,4.10
2022-08-08T14:15:39.916Z,3.55
2022-08-08T14:21:51.896Z,3.97
2022-08-08T14:28:00.201Z,3.97
2022-08-08T14:34:02.928Z,4.47
2022-08-08T14:40:07.513Z,5.88
2022-08-08T14:46:09.390Z,6.07
2022-08-08T14:52:11.004Z,6.33
2022-08-08T14:58:19.843Z,7.35
2022-08-08T15:04:24.146Z,6.40
2022-08-08T15:10:28.940Z,5.23
2022-08-08T15:16:34.504Z,4.72
2022-08-08T15:22:36.866Z,4.00
2022-08-08T15:28:39.554Z,4.53
2022-08-08T15:34:41.187Z,4.10
2022-08-08T15:40:44.377Z,4.20
2022-08-08T15:46:50.781Z,3.70
2022-08-08T15:52:52.973Z,3.90
2022-08-08T15:58:54.498Z,3.33
2022-08-08T16:04:58.808Z,3.00
2022-08-08T16:13:02.460Z,2.53
2022-08-08T16:17:38.708Z,2.85
2022-08-08T16:23:43.359Z,2.80
2022-08-08T16:30:13.036Z,2.90
2022-08-08T16:36:08.732Z,2.60
2022-08-08T16:42:17.907Z,2.87
2022-08-08T16:48:20.547Z,3.05
2022-08-08T16:55:13.975Z,2.80
2022-08-08T17:00:48.922Z,2.80
2022-08-08T17:06:52.769Z,2.50
2022-08-08T17:12:55.392Z,2.50
2022-08-08T17:18:58.313Z,2.88
2022-08-08T17:25:02.598Z,2.93
2022-08-08T17:31:43.123Z,2.83
2022-08-08T17:37:27.622Z,2.80
2022-08-08T17:43:29.416Z,2.53
2022-08-08T17:49:38.133Z,2.85
2022-08-08T17:56:06.271Z,2.43
2022-08-08T18:02:11.412Z,2.70
2022-08-08T18:08:25.389Z,2.67
2022-08-08T18:14:42.883Z,2.70
2022-08-08T18:20:54.984Z,2.88
2022-08-08T18:27:01.119Z,2.57
2022-08-08T18:33:10.664Z,3.08
2022-08-08T18:39:29.692Z,2.42
2022-08-08T18:46:52.396Z,2.73
2022-08-08T18:51:53.868Z,3.20
2022-08-08T18:57:57.003Z,3.00
2022-08-08T19:04:10.397Z,2.88
2022-08-08T19:10:14.238Z,3.00
2022-08-08T19:16:19.278Z,2.67
2022-08-08T19:22:22.060Z,2.60
2022-08-08T19:28:24.194Z,3.33
2022-08-08T19:34:35.619Z,4.18
2022-08-08T19:40:41.208Z,3.40
2022-08-08T19:46:45.458Z,2.93
2022-08-08T19:52:54.798Z,3.70
2022-08-08T19:59:01.246Z,4.37
2022-08-08T20:05:04.775Z,3.38
2022-08-08T20:11:06.550Z,3.30
2022-08-08T20:17:11.894Z,3.37
2022-08-08T20:23:16.096Z,3.20
2022-08-08T20:29:18.166Z,3.57
2022-08-08T20:35:23.006Z,3.15
2022-08-08T20:41:35.133Z,3.15
2022-08-08T20:47:39.297Z,2.97
2022-08-08T20:53:58.989Z,2.92
2022-08-08T21:00:03.863Z,2.97
2022-08-08T21:06:06.724Z,3.15
2022-08-08T21:12:10.019Z,2.85
2022-08-08T21:18:11.962Z,3.40
2022-08-08T21:24:26.867Z,3.40
2022-08-08T21:30:31.179Z,3.70
2022-08-08T21:36:45.213Z,3.22
2022-08-08T21:42:49.156Z,2.97
2022-08-08T21:48:52.884Z,2.93
2022-08-08T21:55:03.245Z,3.15
2022-08-08T22:01:06.042Z,3.07
2022-08-08T22:07:34.678Z,3.15
2022-08-08T22:13:51.172Z,2.83
2022-08-08T22:20:12.215Z,3.20
2022-08-08T22:26:28.142Z,2.95
2022-08-08T22:32:31.973Z,2.73
2022-08-08T22:38:33.389Z,2.97
2022-08-08T22:44:37.353Z,2.90
2022-08-08T22:50:40.154Z,2.60
2022-08-08T22:56:41.589Z,3.00
2022-08-08T23:02:44.572Z,2.60
2022-08-08T23:08:55.112Z,3.28
2022-08-08T23:15:10.591Z,3.08
2022-08-08T23:21:13.209Z,2.90
2022-08-08T23:27:17.372Z,3.00
2022-08-08T23:34:16.789Z,3.00
2022-08-08T23:39:58.401Z,3.22
2022-08-08T23:49:01.449Z,2.75
2022-08-08T23:52:21.844Z,2.90
2022-08-08T23:58:37.187Z,2.65
